sensor_id;sensor_type;location;lat;lon;timestamp;P1;durP1;ratioP1;P2;durP2;ratioP2
61330;SDS011;57640;52.472;-1.950;2023-07-20T00:00:38;0.52;;;0.52;;
61330;SDS011;57640;52.472;-1.950;2023-07-20T00:03:46;3.13;;;0.70;;
61330;SDS011;57640;52.472;-1.950;2023-07-20T00:06:57;0.90;;;0.70;;
61330;SDS011;57640;52.472;-1.950;2023-07-20T00:10:03;1.42;;;0.65;;
61330;SDS011;57640;52.472;-1.950;2023-07-20T00:13:08;0.88;;;0.60;;
61330;SDS011;57640;52.472;-1.950;2023-07-20T00:16:14;0.95;;;0.80;;
61330;SDS011;57640;52.472;-1.950;2023-07-20T00:19:22;0.50;;;0.50;;
61330;SDS011;57640;52.472;-1.950;2023-07-20T00:25:32;1.20;;;0.80;;
61330;SDS011;57640;52.472;-1.950;2023-07-20T00:28:38;1.90;;;0.63;;
61330;SDS011;57640;52.472;-1.950;2023-07-20T00:31:43;0.80;;;0.68;;
61330;SDS011;57640;52.472;-1.950;2023-07-20T00:34:51;1.15;;;0.90;;
61330;SDS011;57640;52.472;-1.950;2023-07-20T00:37:57;0.50;;;0.50;;
61330;SDS011;57640;52.472;-1.950;2023-07-20T00:41:02;1.40;;;0.57;;
61330;SDS011;57640;52.472;-1.950;2023-07-20T00:44:09;1.67;;;0.70;;
61330;SDS011;57640;52.472;-1.950;2023-07-20T00:47:14;1.17;;;0.70;;
61330;SDS011;57640;52.472;-1.950;2023-07-20T00:50:22;0.50;;;0.50;;
61330;SDS011;57640;52.472;-1.950;2023-07-20T00:56:33;0.60;;;0.60;;
61330;SDS011;57640;52.472;-1.950;2023-07-20T00:59:39;0.60;;;0.60;;
61330;SDS011;57640;52.472;-1.950;2023-07-20T01:02:44;0.85;;;0.57;;
61330;SDS011;57640;52.472;-1.950;2023-07-20T01:05:54;2.00;;;0.70;;
61330;SDS011;57640;52.472;-1.950;2023-07-20T01:09:05;0.70;;;0.60;;
61330;SDS011;57640;52.472;-1.950;2023-07-20T01:12:15;0.60;;;0.60;;
61330;SDS011;57640;52.472;-1.950;2023-07-20T01:15:21;0.80;;;0.60;;
61330;SDS011;57640;52.472;-1.950;2023-07-20T01:18:27;0.50;;;0.50;;
61330;SDS011;57640;52.472;-1.950;2023-07-20T01:21:37;2.45;;;0.60;;
61330;SDS011;57640;52.472;-1.950;2023-07-20T01:28:16;1.70;;;0.50;;
61330;SDS011;57640;52.472;-1.950;2023-07-20T01:31:29;1.65;;;0.60;;
61330;SDS011;57640;52.472;-1.950;2023-07-20T01:34:35;0.52;;;0.50;;
61330;SDS011;57640;52.472;-1.950;2023-07-20T01:37:40;0.45;;;0.45;;
61330;SDS011;57640;52.472;-1.950;2023-07-20T01:40:46;0.85;;;0.50;;
61330;SDS011;57640;52.472;-1.950;2023-07-20T01:43:51;1.08;;;0.50;;
61330;SDS011;57640;52.472;-1.950;2023-07-20T01:47:01;1.00;;;0.75;;
61330;SDS011;57640;52.472;-1.950;2023-07-20T01:50:07;1.67;;;1.10;;
61330;SDS011;57640;52.472;-1.950;2023-07-20T01:53:12;2.53;;;0.98;;
61330;SDS011;57640;52.472;-1.950;2023-07-20T01:56:18;1.90;;;1.20;;
61330;SDS011;57640;52.472;-1.950;2023-07-20T01:59:23;3.00;;;1.10;;
61330;SDS011;57640;52.472;-1.950;2023-07-20T02:02:31;1.98;;;1.20;;
61330;SDS011;57640;52.472;-1.950;2023-07-20T02:05:36;2.30;;;1.30;;
61330;SDS011;57640;52.472;-1.950;2023-07-20T02:08:41;2.50;;;1.25;;
61330;SDS011;57640;52.472;-1.950;2023-07-20T02:11:47;1.67;;;1.40;;
61330;SDS011;57640;52.472;-1.950;2023-07-20T02:14:52;2.88;;;1.30;;
61330;SDS011;57640;52.472;-1.950;2023-07-20T02:18:00;1.95;;;1.20;;
61330;SDS011;57640;52.472;-1.950;2023-07-20T02:21:06;1.73;;;1.20;;
61330;SDS011;57640;52.472;-1.950;2023-07-20T02:24:13;2.08;;;1.40;;
61330;SDS011;57640;52.472;-1.950;2023-07-20T02:27:19;3.33;;;1.60;;
61330;SDS011;57640;52.472;-1.950;2023-07-20T02:30:25;1.80;;;1.50;;
61330;SDS011;57640;52.472;-1.950;2023-07-20T02:33:33;1.92;;;1.40;;
61330;SDS011;57640;52.472;-1.950;2023-07-20T02:36:38;2.17;;;1.50;;
61330;SDS011;57640;52.472;-1.950;2023-07-20T02:39:44;1.95;;;1.55;;
61330;SDS011;57640;52.472;-1.950;2023-07-20T02:42:53;1.85;;;1.30;;
61330;SDS011;57640;52.472;-1.950;2023-07-20T02:45:58;2.58;;;1.50;;
61330;SDS011;57640;52.472;-1.950;2023-07-20T02:49:06;2.28;;;1.40;;
61330;SDS011;57640;52.472;-1.950;2023-07-20T02:52:11;2.38;;;1.50;;
61330;SDS011;57640;52.472;-1.950;2023-07-20T02:55:17;2.47;;;1.70;;
61330;SDS011;57640;52.472;-1.950;2023-07-20T02:58:22;2.20;;;1.60;;
61330;SDS011;57640;52.472;-1.950;2023-07-20T03:01:27;3.83;;;1.58;;
61330;SDS011;57640;52.472;-1.950;2023-07-20T03:04:36;2.72;;;1.73;;
61330;SDS011;57640;52.472;-1.950;2023-07-20T03:07:42;2.50;;;1.80;;
61330;SDS011;57640;52.472;-1.950;2023-07-20T03:10:47;2.97;;;1.80;;
61330;SDS011;57640;52.472;-1.950;2023-07-20T03:13:53;2.95;;;1.70;;
61330;SDS011;57640;52.472;-1.950;2023-07-20T03:16:58;2.65;;;1.70;;
61330;SDS011;57640;52.472;-1.950;2023-07-20T03:20:07;2.22;;;1.70;;
61330;SDS011;57640;52.472;-1.950;2023-07-20T03:23:15;2.00;;;1.80;;
61330;SDS011;57640;52.472;-1.950;2023-07-20T03:26:20;2.00;;;1.80;;
61330;SDS011;57640;52.472;-1.950;2023-07-20T03:29:26;2.00;;;1.50;;
61330;SDS011;57640;52.472;-1.950;2023-07-20T03:32:33;2.47;;;1.83;;
61330;SDS011;57640;52.472;-1.950;2023-07-20T03:35:41;2.25;;;1.58;;
61330;SDS011;57640;52.472;-1.950;2023-07-20T03:38:47;2.10;;;1.70;;
61330;SDS011;57640;52.472;-1.950;2023-07-20T03:41:53;2.42;;;1.70;;
61330;SDS011;57640;52.472;-1.950;2023-07-20T03:44:58;2.03;;;1.60;;
61330;SDS011;57640;52.472;-1.950;2023-07-20T03:48:06;2.00;;;1.50;;
61330;SDS011;57640;52.472;-1.950;2023-07-20T03:51:14;1.67;;;1.55;;
61330;SDS011;57640;52.472;-1.950;2023-07-20T03:54:20;2.75;;;1.60;;
61330;SDS011;57640;52.472;-1.950;2023-07-20T03:57:25;2.25;;;1.58;;
61330;SDS011;57640;52.472;-1.950;2023-07-20T04:00:30;1.60;;;1.40;;
61330;SDS011;57640;52.472;-1.950;2023-07-20T04:03:37;1.92;;;1.50;;
61330;SDS011;57640;52.472;-1.950;2023-07-20T04:06:44;1.60;;;1.40;;
61330;SDS011;57640;52.472;-1.950;2023-07-20T04:09:50;1.58;;;1.40;;
61330;SDS011;57640;52.472;-1.950;2023-07-20T04:12:55;1.92;;;1.52;;
61330;SDS011;57640;52.472;-1.950;2023-07-20T04:16:00;2.08;;;1.40;;
61330;SDS011;57640;52.472;-1.950;2023-07-20T04:19:06;2.53;;;1.48;;
61330;SDS011;57640;52.472;-1.950;2023-07-20T04:22:14;2.00;;;1.58;;
61330;SDS011;57640;52.472;-1.950;2023-07-20T04:25:20;1.95;;;1.50;;
61330;SDS011;57640;52.472;-1.950;2023-07-20T04:28:25;2.60;;;1.52;;
61330;SDS011;57640;52.472;-1.950;2023-07-20T04:31:31;2.30;;;1.38;;
61330;SDS011;57640;52.472;-1.950;2023-07-20T04:34:37;1.40;;;1.30;;
61330;SDS011;57640;52.472;-1.950;2023-07-20T04:37:45;2.40;;;1.55;;
61330;SDS011;57640;52.472;-1.950;2023-07-20T04:40:51;2.83;;;1.65;;
61330;SDS011;57640;52.472;-1.950;2023-07-20T04:43:57;2.15;;;1.50;;
61330;SDS011;57640;52.472;-1.950;2023-07-20T04:47:08;2.25;;;1.60;;
61330;SDS011;57640;52.472;-1.950;2023-07-20T04:50:14;1.83;;;1.30;;
61330;SDS011;57640;52.472;-1.950;2023-07-20T04:56:33;2.25;;;1.60;;
61330;SDS011;57640;52.472;-1.950;2023-07-20T04:59:41;1.58;;;1.38;;
61330;SDS011;57640;52.472;-1.950;2023-07-20T05:02:49;1.80;;;1.40;;
61330;SDS011;57640;52.472;-1.950;2023-07-20T05:05:56;2.28;;;1.55;;
61330;SDS011;57640;52.472;-1.950;2023-07-20T05:09:02;2.10;;;1.50;;
61330;SDS011;57640;52.472;-1.950;2023-07-20T05:12:10;1.80;;;1.58;;
61330;SDS011;57640;52.472;-1.950;2023-07-20T05:15:16;4.05;;;1.88;;
61330;SDS011;57640;52.472;-1.950;2023-07-20T05:18:21;2.13;;;1.63;;
61330;SDS011;57640;52.472;-1.950;2023-07-20T05:21:26;3.42;;;1.60;;
61330;SDS011;57640;52.472;-1.950;2023-07-20T05:24:32;2.78;;;1.70;;
61330;SDS011;57640;52.472;-1.950;2023-07-20T05:27:40;1.80;;;1.40;;
61330;SDS011;57640;52.472;-1.950;2023-07-20T05:30:45;1.88;;;1.50;;
61330;SDS011;57640;52.472;-1.950;2023-07-20T05:33:51;1.90;;;1.50;;
61330;SDS011;57640;52.472;-1.950;2023-07-20T05:36:56;1.63;;;1.40;;
61330;SDS011;57640;52.472;-1.950;2023-07-20T05:40:02;2.58;;;1.83;;
61330;SDS011;57640;52.472;-1.950;2023-07-20T05:43:10;2.05;;;1.48;;
61330;SDS011;57640;52.472;-1.950;2023-07-20T05:46:16;1.70;;;1.23;;
61330;SDS011;57640;52.472;-1.950;2023-07-20T05:49:21;2.05;;;1.58;;
61330;SDS011;57640;52.472;-1.950;2023-07-20T05:52:27;1.48;;;1.38;;
61330;SDS011;57640;52.472;-1.950;2023-07-20T05:55:32;2.03;;;1.40;;
61330;SDS011;57640;52.472;-1.950;2023-07-20T05:58:40;1.90;;;1.40;;
61330;SDS011;57640;52.472;-1.950;2023-07-20T06:01:45;1.70;;;1.33;;
61330;SDS011;57640;52.472;-1.950;2023-07-20T06:04:51;1.58;;;1.20;;
61330;SDS011;57640;52.472;-1.950;2023-07-20T06:07:57;2.05;;;1.33;;
61330;SDS011;57640;52.472;-1.950;2023-07-20T06:11:02;1.73;;;1.50;;
61330;SDS011;57640;52.472;-1.950;2023-07-20T06:14:10;2.65;;;1.55;;
61330;SDS011;57640;52.472;-1.950;2023-07-20T06:17:16;2.40;;;1.40;;
61330;SDS011;57640;52.472;-1.950;2023-07-20T06:20:21;2.85;;;1.60;;
61330;SDS011;57640;52.472;-1.950;2023-07-20T06:23:26;2.28;;;1.50;;
61330;SDS011;57640;52.472;-1.950;2023-07-20T06:26:32;1.55;;;1.23;;
61330;SDS011;57640;52.472;-1.950;2023-07-20T06:29:44;1.70;;;1.40;;
61330;SDS011;57640;52.472;-1.950;2023-07-20T06:35:54;2.50;;;1.45;;
61330;SDS011;57640;52.472;-1.950;2023-07-20T06:39:00;2.97;;;1.50;;
61330;SDS011;57640;52.472;-1.950;2023-07-20T06:42:05;1.92;;;1.30;;
61330;SDS011;57640;52.472;-1.950;2023-07-20T06:45:14;2.42;;;1.40;;
61330;SDS011;57640;52.472;-1.950;2023-07-20T06:48:19;2.47;;;1.48;;
61330;SDS011;57640;52.472;-1.950;2023-07-20T06:51:25;2.95;;;1.55;;
61330;SDS011;57640;52.472;-1.950;2023-07-20T06:54:30;1.58;;;1.48;;
61330;SDS011;57640;52.472;-1.950;2023-07-20T06:57:35;2.05;;;1.50;;
61330;SDS011;57640;52.472;-1.950;2023-07-20T07:00:43;3.17;;;1.40;;
61330;SDS011;57640;52.472;-1.950;2023-07-20T07:03:49;1.50;;;1.33;;
61330;SDS011;57640;52.472;-1.950;2023-07-20T07:06:54;2.13;;;1.33;;
61330;SDS011;57640;52.472;-1.950;2023-07-20T07:10:02;2.33;;;1.63;;
61330;SDS011;57640;52.472;-1.950;2023-07-20T07:13:08;2.55;;;1.60;;
61330;SDS011;57640;52.472;-1.950;2023-07-20T07:16:16;1.98;;;1.40;;
61330;SDS011;57640;52.472;-1.950;2023-07-20T07:19:21;2.40;;;1.67;;
61330;SDS011;57640;52.472;-1.950;2023-07-20T07:22:27;1.90;;;1.40;;
61330;SDS011;57640;52.472;-1.950;2023-07-20T07:25:32;2.13;;;1.40;;
61330;SDS011;57640;52.472;-1.950;2023-07-20T07:28:38;2.58;;;1.33;;
61330;SDS011;57640;52.472;-1.950;2023-07-20T07:31:46;4.07;;;1.55;;
61330;SDS011;57640;52.472;-1.950;2023-07-20T07:34:51;2.85;;;1.60;;
61330;SDS011;57640;52.472;-1.950;2023-07-20T07:37:57;1.60;;;1.40;;
61330;SDS011;57640;52.472;-1.950;2023-07-20T07:41:02;1.60;;;1.38;;
61330;SDS011;57640;52.472;-1.950;2023-07-20T07:44:08;2.13;;;1.50;;
61330;SDS011;57640;52.472;-1.950;2023-07-20T07:47:16;4.00;;;1.40;;
61330;SDS011;57640;52.472;-1.950;2023-07-20T07:50:22;2.83;;;1.55;;
61330;SDS011;57640;52.472;-1.950;2023-07-20T07:53:27;2.53;;;1.67;;
61330;SDS011;57640;52.472;-1.950;2023-07-20T07:56:32;3.55;;;1.83;;
61330;SDS011;57640;52.472;-1.950;2023-07-20T07:59:38;3.03;;;1.95;;
61330;SDS011;57640;52.472;-1.950;2023-07-20T08:02:46;4.43;;;2.00;;
61330;SDS011;57640;52.472;-1.950;2023-07-20T08:05:53;2.75;;;2.00;;
61330;SDS011;57640;52.472;-1.950;2023-07-20T08:08:58;3.15;;;2.15;;
61330;SDS011;57640;52.472;-1.950;2023-07-20T08:12:05;3.50;;;2.40;;
61330;SDS011;57640;52.472;-1.950;2023-07-20T08:15:10;4.75;;;2.20;;
61330;SDS011;57640;52.472;-1.950;2023-07-20T08:18:19;2.92;;;1.90;;
61330;SDS011;57640;52.472;-1.950;2023-07-20T08:21:24;3.10;;;2.20;;
61330;SDS011;57640;52.472;-1.950;2023-07-20T08:24:29;2.95;;;2.20;;
61330;SDS011;57640;52.472;-1.950;2023-07-20T08:27:36;3.92;;;2.50;;
61330;SDS011;57640;52.472;-1.950;2023-07-20T08:30:43;2.63;;;2.20;;
61330;SDS011;57640;52.472;-1.950;2023-07-20T08:33:51;3.03;;;2.00;;
61330;SDS011;57640;52.472;-1.950;2023-07-20T08:37:00;2.55;;;1.95;;
61330;SDS011;57640;52.472;-1.950;2023-07-20T08:40:06;3.05;;;2.20;;
61330;SDS011;57640;52.472;-1.950;2023-07-20T08:43:12;3.30;;;2.10;;
61330;SDS011;57640;52.472;-1.950;2023-07-20T08:46:19;3.25;;;2.17;;
61330;SDS011;57640;52.472;-1.950;2023-07-20T08:49:27;2.85;;;2.20;;
61330;SDS011;57640;52.472;-1.950;2023-07-20T08:52:33;2.90;;;1.90;;
61330;SDS011;57640;52.472;-1.950;2023-07-20T08:55:39;3.67;;;2.20;;
61330;SDS011;57640;52.472;-1.950;2023-07-20T08:58:45;2.60;;;1.98;;
61330;SDS011;57640;52.472;-1.950;2023-07-20T09:01:50;3.10;;;1.92;;
61330;SDS011;57640;52.472;-1.950;2023-07-20T09:04:59;3.53;;;1.92;;
61330;SDS011;57640;52.472;-1.950;2023-07-20T09:08:04;3.72;;;2.13;;
61330;SDS011;57640;52.472;-1.950;2023-07-20T09:11:11;3.83;;;2.00;;
61330;SDS011;57640;52.472;-1.950;2023-07-20T09:14:17;2.72;;;2.25;;
61330;SDS011;57640;52.472;-1.950;2023-07-20T09:17:22;3.03;;;2.10;;
61330;SDS011;57640;52.472;-1.950;2023-07-20T09:20:33;2.85;;;1.98;;
61330;SDS011;57640;52.472;-1.950;2023-07-20T09:23:38;3.38;;;2.38;;
61330;SDS011;57640;52.472;-1.950;2023-07-20T09:26:45;2.33;;;2.03;;
61330;SDS011;57640;52.472;-1.950;2023-07-20T09:29:51;3.83;;;2.22;;
61330;SDS011;57640;52.472;-1.950;2023-07-20T09:32:56;2.83;;;2.00;;
61330;SDS011;57640;52.472;-1.950;2023-07-20T09:36:05;4.50;;;2.00;;
61330;SDS011;57640;52.472;-1.950;2023-07-20T09:42:15;2.28;;;1.85;;
61330;SDS011;57640;52.472;-1.950;2023-07-20T09:45:21;4.03;;;2.15;;
61330;SDS011;57640;52.472;-1.950;2023-07-20T09:48:26;2.85;;;1.80;;
61330;SDS011;57640;52.472;-1.950;2023-07-20T09:51:34;2.58;;;1.90;;
61330;SDS011;57640;52.472;-1.950;2023-07-20T09:54:39;3.53;;;1.95;;
61330;SDS011;57640;52.472;-1.950;2023-07-20T09:57:45;3.05;;;2.00;;
61330;SDS011;57640;52.472;-1.950;2023-07-20T10:00:51;2.60;;;1.83;;
61330;SDS011;57640;52.472;-1.950;2023-07-20T10:03:58;4.10;;;1.90;;
61330;SDS011;57640;52.472;-1.950;2023-07-20T10:07:07;3.70;;;1.92;;
61330;SDS011;57640;52.472;-1.950;2023-07-20T10:10:16;4.78;;;1.90;;
61330;SDS011;57640;52.472;-1.950;2023-07-20T10:13:26;3.60;;;1.85;;
61330;SDS011;57640;52.472;-1.950;2023-07-20T10:16:34;4.57;;;2.08;;
61330;SDS011;57640;52.472;-1.950;2023-07-20T10:19:42;5.43;;;1.80;;
61330;SDS011;57640;52.472;-1.950;2023-07-20T10:22:51;3.80;;;2.00;;
61330;SDS011;57640;52.472;-1.950;2023-07-20T10:25:58;2.03;;;1.70;;
61330;SDS011;57640;52.472;-1.950;2023-07-20T10:29:06;2.75;;;1.90;;
61330;SDS011;57640;52.472;-1.950;2023-07-20T10:32:12;3.13;;;1.70;;
61330;SDS011;57640;52.472;-1.950;2023-07-20T10:35:18;2.47;;;1.88;;
61330;SDS011;57640;52.472;-1.950;2023-07-20T10:38:40;3.30;;;1.92;;
61330;SDS011;57640;52.472;-1.950;2023-07-20T10:41:46;2.72;;;1.83;;
61330;SDS011;57640;52.472;-1.950;2023-07-20T10:44:51;3.55;;;1.80;;
61330;SDS011;57640;52.472;-1.950;2023-07-20T10:47:57;2.38;;;1.80;;
61330;SDS011;57640;52.472;-1.950;2023-07-20T10:51:08;2.33;;;2.00;;
61330;SDS011;57640;52.472;-1.950;2023-07-20T10:57:36;2.10;;;1.80;;
61330;SDS011;57640;52.472;-1.950;2023-07-20T11:00:56;2.72;;;1.80;;
61330;SDS011;57640;52.472;-1.950;2023-07-20T11:04:04;2.25;;;1.67;;
61330;SDS011;57640;52.472;-1.950;2023-07-20T11:07:15;3.78;;;2.03;;
61330;SDS011;57640;52.472;-1.950;2023-07-20T11:10:21;13.98;;;9.60;;
61330;SDS011;57640;52.472;-1.950;2023-07-20T11:13:29;53.85;;;37.97;;
61330;SDS011;57640;52.472;-1.950;2023-07-20T11:16:35;74.32;;;51.72;;
61330;SDS011;57640;52.472;-1.950;2023-07-20T11:19:41;75.07;;;52.63;;
61330;SDS011;57640;52.472;-1.950;2023-07-20T11:22:47;80.13;;;55.25;;
61330;SDS011;57640;52.472;-1.950;2023-07-20T11:25:56;78.68;;;56.05;;
61330;SDS011;57640;52.472;-1.950;2023-07-20T11:29:05;72.55;;;50.85;;
61330;SDS011;57640;52.472;-1.950;2023-07-20T11:32:10;51.65;;;37.95;;
61330;SDS011;57640;52.472;-1.950;2023-07-20T11:35:15;52.75;;;38.50;;
61330;SDS011;57640;52.472;-1.950;2023-07-20T11:38:21;49.50;;;34.80;;
61330;SDS011;57640;52.472;-1.950;2023-07-20T11:41:26;37.05;;;26.42;;
61330;SDS011;57640;52.472;-1.950;2023-07-20T11:44:34;36.17;;;27.45;;
61330;SDS011;57640;52.472;-1.950;2023-07-20T11:47:39;32.33;;;23.58;;
61330;SDS011;57640;52.472;-1.950;2023-07-20T11:50:45;30.20;;;21.92;;
61330;SDS011;57640;52.472;-1.950;2023-07-20T11:53:50;28.83;;;20.85;;
61330;SDS011;57640;52.472;-1.950;2023-07-20T11:56:56;25.70;;;17.70;;
61330;SDS011;57640;52.472;-1.950;2023-07-20T12:00:04;21.23;;;16.27;;
61330;SDS011;57640;52.472;-1.950;2023-07-20T12:03:13;21.15;;;15.77;;
61330;SDS011;57640;52.472;-1.950;2023-07-20T12:06:22;18.27;;;13.25;;
61330;SDS011;57640;52.472;-1.950;2023-07-20T12:09:27;16.77;;;11.85;;
61330;SDS011;57640;52.472;-1.950;2023-07-20T12:12:33;13.50;;;10.30;;
61330;SDS011;57640;52.472;-1.950;2023-07-20T12:15:41;12.63;;;8.98;;
61330;SDS011;57640;52.472;-1.950;2023-07-20T12:18:46;12.82;;;8.68;;
61330;SDS011;57640;52.472;-1.950;2023-07-20T12:21:56;9.75;;;7.55;;
61330;SDS011;57640;52.472;-1.950;2023-07-20T12:25:05;11.57;;;7.60;;
61330;SDS011;57640;52.472;-1.950;2023-07-20T12:28:11;8.80;;;6.25;;
61330;SDS011;57640;52.472;-1.950;2023-07-20T12:31:19;7.40;;;5.85;;
61330;SDS011;57640;52.472;-1.950;2023-07-20T12:34:25;8.00;;;5.90;;
61330;SDS011;57640;52.472;-1.950;2023-07-20T12:37:30;8.18;;;5.60;;
61330;SDS011;57640;52.472;-1.950;2023-07-20T12:40:36;6.57;;;5.00;;
61330;SDS011;57640;52.472;-1.950;2023-07-20T12:43:41;5.03;;;3.95;;
61330;SDS011;57640;52.472;-1.950;2023-07-20T12:46:49;5.53;;;3.92;;
61330;SDS011;57640;52.472;-1.950;2023-07-20T12:49:54;5.32;;;3.60;;
61330;SDS011;57640;52.472;-1.950;2023-07-20T12:52:59;5.13;;;3.70;;
61330;SDS011;57640;52.472;-1.950;2023-07-20T12:56:06;4.20;;;3.50;;
61330;SDS011;57640;52.472;-1.950;2023-07-20T12:59:11;4.40;;;3.33;;
61330;SDS011;57640;52.472;-1.950;2023-07-20T13:02:19;4.38;;;3.30;;
61330;SDS011;57640;52.472;-1.950;2023-07-20T13:05:24;4.07;;;3.10;;
61330;SDS011;57640;52.472;-1.950;2023-07-20T13:08:29;3.75;;;3.10;;
61330;SDS011;57640;52.472;-1.950;2023-07-20T13:11:35;3.85;;;2.90;;
61330;SDS011;57640;52.472;-1.950;2023-07-20T13:14:40;3.78;;;2.70;;
61330;SDS011;57640;52.472;-1.950;2023-07-20T13:17:48;3.35;;;2.72;;
61330;SDS011;57640;52.472;-1.950;2023-07-20T13:20:53;3.45;;;2.50;;
61330;SDS011;57640;52.472;-1.950;2023-07-20T13:23:58;4.57;;;3.00;;
61330;SDS011;57640;52.472;-1.950;2023-07-20T13:27:06;3.88;;;2.60;;
61330;SDS011;57640;52.472;-1.950;2023-07-20T13:30:12;3.50;;;2.70;;
61330;SDS011;57640;52.472;-1.950;2023-07-20T13:33:21;4.45;;;2.80;;
61330;SDS011;57640;52.472;-1.950;2023-07-20T13:36:26;3.33;;;2.78;;
61330;SDS011;57640;52.472;-1.950;2023-07-20T13:39:32;3.85;;;2.75;;
61330;SDS011;57640;52.472;-1.950;2023-07-20T13:42:37;3.53;;;3.00;;
61330;SDS011;57640;52.472;-1.950;2023-07-20T13:45:42;4.28;;;2.97;;
61330;SDS011;57640;52.472;-1.950;2023-07-20T13:48:51;4.13;;;3.10;;
61330;SDS011;57640;52.472;-1.950;2023-07-20T13:51:56;3.70;;;2.90;;
61330;SDS011;57640;52.472;-1.950;2023-07-20T13:55:01;3.97;;;3.10;;
61330;SDS011;57640;52.472;-1.950;2023-07-20T13:58:07;4.18;;;3.00;;
61330;SDS011;57640;52.472;-1.950;2023-07-20T14:01:12;3.85;;;2.90;;
61330;SDS011;57640;52.472;-1.950;2023-07-20T14:04:21;3.78;;;3.17;;
61330;SDS011;57640;52.472;-1.950;2023-07-20T14:07:26;4.03;;;3.30;;
61330;SDS011;57640;52.472;-1.950;2023-07-20T14:10:32;5.55;;;3.70;;
61330;SDS011;57640;52.472;-1.950;2023-07-20T14:13:37;3.65;;;3.05;;
61330;SDS011;57640;52.472;-1.950;2023-07-20T14:16:42;5.18;;;3.58;;
61330;SDS011;57640;52.472;-1.950;2023-07-20T14:19:50;4.30;;;3.60;;
61330;SDS011;57640;52.472;-1.950;2023-07-20T14:22:56;5.43;;;3.90;;
61330;SDS011;57640;52.472;-1.950;2023-07-20T14:26:02;5.25;;;3.90;;
61330;SDS011;57640;52.472;-1.950;2023-07-20T14:29:09;6.13;;;4.13;;
61330;SDS011;57640;52.472;-1.950;2023-07-20T14:32:15;6.75;;;4.25;;
61330;SDS011;57640;52.472;-1.950;2023-07-20T14:35:24;6.60;;;4.60;;
61330;SDS011;57640;52.472;-1.950;2023-07-20T14:38:30;5.35;;;4.10;;
61330;SDS011;57640;52.472;-1.950;2023-07-20T14:41:36;5.43;;;4.25;;
61330;SDS011;57640;52.472;-1.950;2023-07-20T14:44:41;6.05;;;4.50;;
61330;SDS011;57640;52.472;-1.950;2023-07-20T14:47:46;5.22;;;3.72;;
61330;SDS011;57640;52.472;-1.950;2023-07-20T14:50:58;5.22;;;3.83;;
61330;SDS011;57640;52.472;-1.950;2023-07-20T14:54:05;5.10;;;4.30;;
61330;SDS011;57640;52.472;-1.950;2023-07-20T14:57:10;7.82;;;5.00;;
61330;SDS011;57640;52.472;-1.950;2023-07-20T15:00:19;6.63;;;5.05;;
61330;SDS011;57640;52.472;-1.950;2023-07-20T15:03:24;6.38;;;5.00;;
61330;SDS011;57640;52.472;-1.950;2023-07-20T15:06:32;5.72;;;4.78;;
61330;SDS011;57640;52.472;-1.950;2023-07-20T15:09:38;5.85;;;4.60;;
61330;SDS011;57640;52.472;-1.950;2023-07-20T15:12:43;7.10;;;4.53;;
61330;SDS011;57640;52.472;-1.950;2023-07-20T15:15:48;5.97;;;4.18;;
61330;SDS011;57640;52.472;-1.950;2023-07-20T15:18:54;5.05;;;4.13;;
61330;SDS011;57640;52.472;-1.950;2023-07-20T15:22:02;5.85;;;4.65;;
61330;SDS011;57640;52.472;-1.950;2023-07-20T15:28:13;6.88;;;4.50;;
61330;SDS011;57640;52.472;-1.950;2023-07-20T15:31:19;5.63;;;4.30;;
61330;SDS011;57640;52.472;-1.950;2023-07-20T15:34:25;4.85;;;4.20;;
61330;SDS011;57640;52.472;-1.950;2023-07-20T15:37:33;6.75;;;4.63;;
61330;SDS011;57640;52.472;-1.950;2023-07-20T15:40:42;4.97;;;3.95;;
61330;SDS011;57640;52.472;-1.950;2023-07-20T15:43:48;5.20;;;4.20;;
61330;SDS011;57640;52.472;-1.950;2023-07-20T15:46:55;5.25;;;4.28;;
61330;SDS011;57640;52.472;-1.950;2023-07-20T15:50:00;6.40;;;4.70;;
61330;SDS011;57640;52.472;-1.950;2023-07-20T15:53:08;7.38;;;4.47;;
61330;SDS011;57640;52.472;-1.950;2023-07-20T15:56:13;9.32;;;5.00;;
61330;SDS011;57640;52.472;-1.950;2023-07-20T16:02:52;6.03;;;4.60;;
61330;SDS011;57640;52.472;-1.950;2023-07-20T16:05:58;5.70;;;4.60;;
61330;SDS011;57640;52.472;-1.950;2023-07-20T16:15:29;5.82;;;4.88;;
61330;SDS011;57640;52.472;-1.950;2023-07-20T16:18:40;6.13;;;4.68;;
61330;SDS011;57640;52.472;-1.950;2023-07-20T16:21:45;5.47;;;4.60;;
61330;SDS011;57640;52.472;-1.950;2023-07-20T16:24:50;6.10;;;4.47;;
61330;SDS011;57640;52.472;-1.950;2023-07-20T16:27:56;5.50;;;4.30;;
61330;SDS011;57640;52.472;-1.950;2023-07-20T16:31:10;5.38;;;4.57;;
61330;SDS011;57640;52.472;-1.950;2023-07-20T16:34:16;6.82;;;4.97;;
61330;SDS011;57640;52.472;-1.950;2023-07-20T16:37:23;6.20;;;4.75;;
61330;SDS011;57640;52.472;-1.950;2023-07-20T16:40:28;6.75;;;4.60;;
61330;SDS011;57640;52.472;-1.950;2023-07-20T16:43:34;4.95;;;4.20;;
61330;SDS011;57640;52.472;-1.950;2023-07-20T16:46:42;5.75;;;4.47;;
61330;SDS011;57640;52.472;-1.950;2023-07-20T16:49:49;5.03;;;4.40;;
61330;SDS011;57640;52.472;-1.950;2023-07-20T16:52:56;5.72;;;4.07;;
61330;SDS011;57640;52.472;-1.950;2023-07-20T16:56:02;5.07;;;4.20;;
61330;SDS011;57640;52.472;-1.950;2023-07-20T16:59:08;5.60;;;4.18;;
61330;SDS011;57640;52.472;-1.950;2023-07-20T17:02:16;4.88;;;4.05;;
61330;SDS011;57640;52.472;-1.950;2023-07-20T17:05:22;5.32;;;4.45;;
61330;SDS011;57640;52.472;-1.950;2023-07-20T17:08:27;5.60;;;4.18;;
61330;SDS011;57640;52.472;-1.950;2023-07-20T17:11:33;5.82;;;4.63;;
61330;SDS011;57640;52.472;-1.950;2023-07-20T17:14:39;6.35;;;3.90;;
61330;SDS011;57640;52.472;-1.950;2023-07-20T17:17:47;5.57;;;4.05;;
61330;SDS011;57640;52.472;-1.950;2023-07-20T17:20:53;4.85;;;4.15;;
61330;SDS011;57640;52.472;-1.950;2023-07-20T17:23:59;5.30;;;3.97;;
61330;SDS011;57640;52.472;-1.950;2023-07-20T17:27:04;5.10;;;3.90;;
61330;SDS011;57640;52.472;-1.950;2023-07-20T17:30:10;4.90;;;4.00;;
61330;SDS011;57640;52.472;-1.950;2023-07-20T17:33:18;6.30;;;4.13;;
61330;SDS011;57640;52.472;-1.950;2023-07-20T17:36:24;5.43;;;4.10;;
61330;SDS011;57640;52.472;-1.950;2023-07-20T17:39:32;5.85;;;4.00;;
61330;SDS011;57640;52.472;-1.950;2023-07-20T17:42:37;5.43;;;4.55;;
61330;SDS011;57640;52.472;-1.950;2023-07-20T17:45:45;4.82;;;3.97;;
61330;SDS011;57640;52.472;-1.950;2023-07-20T17:48:54;5.25;;;4.13;;
61330;SDS011;57640;52.472;-1.950;2023-07-20T17:52:02;5.47;;;4.30;;
61330;SDS011;57640;52.472;-1.950;2023-07-20T17:58:40;5.57;;;4.30;;
61330;SDS011;57640;52.472;-1.950;2023-07-20T18:01:45;5.55;;;4.63;;
61330;SDS011;57640;52.472;-1.950;2023-07-20T18:04:54;6.28;;;4.50;;
61330;SDS011;57640;52.472;-1.950;2023-07-20T18:08:02;5.38;;;4.40;;
61330;SDS011;57640;52.472;-1.950;2023-07-20T18:11:07;5.32;;;4.50;;
61330;SDS011;57640;52.472;-1.950;2023-07-20T18:14:13;5.00;;;4.32;;
61330;SDS011;57640;52.472;-1.950;2023-07-20T18:17:19;5.13;;;4.60;;
61330;SDS011;57640;52.472;-1.950;2023-07-20T18:20:28;5.03;;;4.25;;
61330;SDS011;57640;52.472;-1.950;2023-07-20T18:23:35;6.65;;;4.20;;
61330;SDS011;57640;52.472;-1.950;2023-07-20T18:26:40;5.43;;;4.35;;
61330;SDS011;57640;52.472;-1.950;2023-07-20T18:29:48;5.68;;;4.38;;
61330;SDS011;57640;52.472;-1.950;2023-07-20T18:32:54;5.45;;;4.10;;
61330;SDS011;57640;52.472;-1.950;2023-07-20T18:36:02;6.97;;;4.40;;
61330;SDS011;57640;52.472;-1.950;2023-07-20T18:39:11;8.25;;;4.70;;
61330;SDS011;57640;52.472;-1.950;2023-07-20T18:42:16;6.07;;;4.40;;
61330;SDS011;57640;52.472;-1.950;2023-07-20T18:45:22;5.78;;;4.40;;
61330;SDS011;57640;52.472;-1.950;2023-07-20T18:48:27;6.75;;;4.70;;
61330;SDS011;57640;52.472;-1.950;2023-07-20T18:51:35;8.63;;;4.60;;
61330;SDS011;57640;52.472;-1.950;2023-07-20T18:54:41;6.38;;;4.95;;
61330;SDS011;57640;52.472;-1.950;2023-07-20T18:57:47;6.85;;;5.38;;
61330;SDS011;57640;52.472;-1.950;2023-07-20T19:00:57;5.07;;;4.30;;
61330;SDS011;57640;52.472;-1.950;2023-07-20T19:04:03;5.95;;;4.93;;